createdAt,value
2023-04-16T00:00:11.534Z,11.44
2023-04-16T00:02:38.450Z,11.48
2023-04-16T00:05:05.505Z,11.41
2023-04-16T00:07:32.232Z,11.48
2023-04-16T00:10:00.261Z,11.55
2023-04-16T00:12:26.883Z,11.58
2023-04-16T00:14:53.635Z,11.61
2023-04-16T00:17:20.282Z,11.62
2023-04-16T00:19:46.909Z,11.68
2023-04-16T00:22:13.534Z,11.67
2023-04-16T00:24:40.322Z,11.64
2023-04-16T00:27:06.967Z,11.64
2023-04-16T00:29:33.746Z,11.61
2023-04-16T00:32:00.424Z,11.65
2023-04-16T00:34:27.125Z,11.63
2023-04-16T00:36:53.828Z,11.67
2023-04-16T00:39:20.415Z,11.71
2023-04-16T00:41:47.140Z,11.65
2023-04-16T00:44:13.838Z,11.69
2023-04-16T00:46:40.601Z,11.70
2023-04-16T00:49:07.414Z,11.71
2023-04-16T00:51:35.360Z,11.74
2023-04-16T00:54:02.024Z,11.76
2023-04-16T00:56:28.718Z,11.77
2023-04-16T00:58:55.474Z,11.81
2023-04-16T01:01:22.362Z,11.78
2023-04-16T01:03:49.297Z,11.82
2023-04-16T01:06:17.202Z,11.86
2023-04-16T01:08:44.122Z,11.82
2023-04-16T01:11:11.039Z,11.88
2023-04-16T01:13:37.751Z,11.90
2023-04-16T01:16:04.929Z,11.91
2023-04-16T01:18:33.276Z,11.94
2023-04-16T01:20:59.934Z,11.95
2023-04-16T01:23:26.601Z,11.92
2023-04-16T01:25:53.476Z,11.97
2023-04-16T01:28:20.105Z,11.92
2023-04-16T01:30:46.827Z,11.90
2023-04-16T01:33:14.045Z,11.92
2023-04-16T01:35:40.888Z,11.90
2023-04-16T01:38:08.546Z,11.89
2023-04-16T01:40:35.745Z,11.89
2023-04-16T01:43:02.492Z,11.94
2023-04-16T01:45:29.192Z,11.92
2023-04-16T01:47:55.927Z,11.86
2023-04-16T01:50:22.769Z,11.85
2023-04-16T01:52:49.388Z,11.86
2023-04-16T01:55:16.052Z,11.82
2023-04-16T01:57:42.729Z,11.82
2023-04-16T02:00:09.701Z,11.87
2023-04-16T02:02:36.591Z,11.90
2023-04-16T02:05:03.429Z,11.86
2023-04-16T02:07:30.107Z,11.86
2023-04-16T02:09:56.801Z,11.85
2023-04-16T02:12:23.487Z,11.86
2023-04-16T02:14:50.179Z,11.89
2023-04-16T02:17:16.933Z,11.91
2023-04-16T02:19:43.570Z,11.91
2023-04-16T02:22:10.236Z,11.93
2023-04-16T02:24:36.913Z,12.04
2023-04-16T02:27:03.514Z,12.03
2023-04-16T02:29:30.175Z,12.00
2023-04-16T02:31:56.905Z,11.98
2023-04-16T02:34:23.739Z,11.97
2023-04-16T02:36:50.403Z,12.02
2023-04-16T02:39:17.046Z,12.06
2023-04-16T02:41:43.704Z,12.08
2023-04-16T02:44:10.308Z,12.07
2023-04-16T02:46:36.961Z,12.11
2023-04-16T02:49:03.619Z,12.13
2023-04-16T02:51:30.214Z,12.07
2023-04-16T02:53:56.914Z,12.09
2023-04-16T02:56:23.605Z,12.09
2023-04-16T02:58:50.298Z,12.12
2023-04-16T03:01:17.034Z,12.13
2023-04-16T03:03:43.634Z,12.08
2023-04-16T03:06:10.269Z,12.06
2023-04-16T03:08:36.886Z,12.09
2023-04-16T03:11:03.584Z,12.14
2023-04-16T03:13:30.282Z,12.13
2023-04-16T03:15:56.951Z,12.16
2023-04-16T03:18:23.697Z,12.19
2023-04-16T03:20:53.691Z,12.26
2023-04-16T03:23:20.342Z,12.23
2023-04-16T03:25:47.076Z,12.23
2023-04-16T03:28:13.945Z,12.22
2023-04-16T03:30:40.564Z,12.13
2023-04-16T03:33:07.280Z,12.08
2023-04-16T03:35:33.937Z,12.08
2023-04-16T03:38:00.688Z,12.07
2023-04-16T03:40:27.409Z,12.09
2023-04-16T03:42:54.034Z,12.06
2023-04-16T03:45:20.687Z,12.12
2023-04-16T03:47:47.421Z,12.15
2023-04-16T03:50:14.078Z,12.14
2023-04-16T03:52:40.793Z,12.11
2023-04-16T03:55:08.036Z,12.02
2023-04-16T03:57:34.714Z,12.05
2023-04-16T04:00:01.440Z,12.07
2023-04-16T04:02:28.339Z,12.10
2023-04-16T04:04:55.210Z,12.11
2023-04-16T04:07:21.937Z,12.10
2023-04-16T04:09:48.601Z,12.09
2023-04-16T04:12:15.256Z,12.09
2023-04-16T04:14:43.081Z,12.11
2023-04-16T04:17:09.854Z,12.18
2023-04-16T04:19:37.806Z,12.18
2023-04-16T04:22:07.116Z,12.18
2023-04-16T04:24:33.792Z,12.25
2023-04-16T04:27:00.474Z,12.31
2023-04-16T04:29:27.138Z,12.28
2023-04-16T04:31:53.794Z,12.29
2023-04-16T04:34:20.510Z,12.28
2023-04-16T04:36:47.313Z,12.30
2023-04-16T04:39:13.983Z,12.31
2023-04-16T04:41:40.647Z,12.26
2023-04-16T04:44:07.262Z,12.13
2023-04-16T04:46:33.872Z,12.23
2023-04-16T04:49:00.526Z,12.20
2023-04-16T04:51:27.468Z,12.21
2023-04-16T04:53:54.136Z,12.24
2023-04-16T04:56:20.819Z,12.24
2023-04-16T04:58:50.135Z,12.22
2023-04-16T05:01:17.236Z,12.23
2023-04-16T05:03:44.258Z,12.25
2023-04-16T05:06:10.975Z,12.29
2023-04-16T05:08:37.611Z,12.28
2023-04-16T05:11:04.545Z,12.29
2023-04-16T05:13:31.227Z,12.27
2023-04-16T05:15:57.836Z,12.30
2023-04-16T05:18:24.550Z,12.32
2023-04-16T05:20:51.159Z,12.31
2023-04-16T05:23:17.761Z,12.31
2023-04-16T05:25:44.395Z,12.36
2023-04-16T05:28:13.361Z,12.37
2023-04-16T05:30:39.988Z,12.45
2023-04-16T05:33:06.693Z,12.45
2023-04-16T05:35:33.303Z,12.48
2023-04-16T05:37:59.977Z,12.47
2023-04-16T05:40:26.736Z,12.44
2023-04-16T05:42:53.336Z,12.46
2023-04-16T05:45:19.989Z,12.50
2023-04-16T05:47:46.634Z,12.55
2023-04-16T05:50:13.338Z,12.56
2023-04-16T05:52:40.004Z,12.64
2023-04-16T05:55:06.771Z,12.66
2023-04-16T05:57:33.454Z,12.64
2023-04-16T06:00:00.223Z,12.65
2023-04-16T06:02:27.012Z,12.67
2023-04-16T06:04:53.816Z,12.74
2023-04-16T06:07:20.485Z,12.78
2023-04-16T06:09:47.131Z,12.77
2023-04-16T06:12:13.819Z,12.75
2023-04-16T06:14:40.425Z,12.70
2023-04-16T06:17:07.096Z,12.69
2023-04-16T06:19:33.814Z,12.71
2023-04-16T06:22:00.515Z,12.76
2023-04-16T06:24:27.199Z,12.86
2023-04-16T06:26:53.927Z,13.01
2023-04-16T06:29:22.528Z,13.02
2023-04-16T06:31:52.587Z,13.11
2023-04-16T06:34:19.369Z,13.16
2023-04-16T06:36:46.028Z,13.17
2023-04-16T06:39:12.712Z,13.19
2023-04-16T06:41:39.344Z,13.18
2023-04-16T06:44:06.028Z,13.21
2023-04-16T06:46:32.644Z,13.24
2023-04-16T06:48:59.313Z,13.25
2023-04-16T06:51:26.002Z,13.33
2023-04-16T06:53:52.883Z,13.38
2023-04-16T06:56:19.623Z,13.42
2023-04-16T06:58:46.286Z,13.44
2023-04-16T07:01:13.106Z,13.49
2023-04-16T07:03:40.165Z,13.56
2023-04-16T07:06:06.946Z,13.58
2023-04-16T07:08:33.700Z,13.68
2023-04-16T07:11:00.511Z,13.77
2023-04-16T07:13:27.971Z,13.81
2023-04-16T07:15:54.678Z,13.83
2023-04-16T07:18:21.408Z,13.77
2023-04-16T07:20:48.129Z,13.76
2023-04-16T07:23:14.764Z,13.74
2023-04-16T07:25:42.530Z,13.74
2023-04-16T07:28:09.181Z,13.75
2023-04-16T07:30:35.786Z,13.66
2023-04-16T07:33:05.798Z,13.70
2023-04-16T07:35:32.478Z,13.78
2023-04-16T07:37:59.195Z,13.84
2023-04-16T07:40:25.963Z,13.92
2023-04-16T07:42:52.612Z,13.89
2023-04-16T07:45:19.224Z,13.94
2023-04-16T07:47:45.844Z,14.04
2023-04-16T07:50:12.557Z,14.07
2023-04-16T07:52:39.233Z,14.10
2023-04-16T07:55:06.255Z,14.14
2023-04-16T07:57:33.089Z,14.18
2023-04-16T07:59:59.780Z,14.23
2023-04-16T08:02:26.574Z,14.08
2023-04-16T08:04:53.574Z,14.29
2023-04-16T08:07:20.304Z,14.31
2023-04-16T08:09:48.072Z,14.38
2023-04-16T08:12:14.796Z,14.42
2023-04-16T08:14:41.606Z,14.49
2023-04-16T08:17:08.395Z,14.62
2023-04-16T08:19:35.134Z,14.63
2023-04-16T08:22:01.862Z,14.64
2023-04-16T08:24:28.530Z,14.73
2023-04-16T08:26:57.026Z,14.81
2023-04-16T08:29:27.021Z,14.87
2023-04-16T08:31:53.967Z,14.93
2023-04-16T08:34:20.772Z,14.93
2023-04-16T08:36:47.468Z,14.99
2023-04-16T08:39:14.071Z,15.03
2023-04-16T08:41:44.489Z,14.95
2023-04-16T08:44:21.717Z,14.99
2023-04-16T08:46:48.406Z,14.94
2023-04-16T08:49:16.902Z,14.87
2023-04-16T08:51:43.546Z,14.86
2023-04-16T08:54:10.164Z,14.80
2023-04-16T08:56:37.009Z,14.78
2023-04-16T08:59:03.730Z,14.79
2023-04-16T09:01:30.359Z,14.68
2023-04-16T09:03:57.302Z,14.56
2023-04-16T09:06:24.108Z,14.55
2023-04-16T09:08:50.823Z,14.56
2023-04-16T09:11:20.818Z,14.51
2023-04-16T09:13:47.425Z,14.52
2023-04-16T09:16:14.457Z,14.54
2023-04-16T09:18:41.234Z,14.59
2023-04-16T09:21:09.483Z,14.73
2023-04-16T09:23:37.274Z,14.79
2023-04-16T09:26:04.859Z,14.85
2023-04-16T09:28:45.407Z,14.93
2023-04-16T09:31:16.627Z,14.92
2023-04-16T09:33:43.781Z,15.02
2023-04-16T09:36:10.541Z,15.17
2023-04-16T09:38:47.404Z,15.32
2023-04-16T09:41:14.067Z,15.28
2023-04-16T09:43:40.794Z,15.32
2023-04-16T09:46:08.408Z,15.32
2023-04-16T09:48:35.343Z,15.23
2023-04-16T09:51:02.054Z,15.24
2023-04-16T09:53:29.674Z,15.19
2023-04-16T09:56:04.623Z,15.20
2023-04-16T09:58:31.324Z,15.23
2023-04-16T10:01:04.008Z,15.34
2023-04-16T10:03:34.576Z,15.44
2023-04-16T10:06:08.790Z,15.33
2023-04-16T10:08:35.648Z,15.33
2023-04-16T10:11:02.594Z,15.37
2023-04-16T10:13:29.239Z,15.31
2023-04-16T10:15:56.098Z,15.35
2023-04-16T10:18:23.049Z,15.41
2023-04-16T10:20:50.484Z,15.43
2023-04-16T10:23:17.099Z,15.39
2023-04-16T10:25:43.769Z,15.40
2023-04-16T10:28:10.509Z,15.43
2023-04-16T10:30:37.660Z,15.46
2023-04-16T10:33:04.413Z,15.50
2023-04-16T10:35:31.128Z,15.55
2023-04-16T10:37:57.755Z,15.49
2023-04-16T10:40:25.625Z,15.49
2023-04-16T10:42:59.065Z,15.42
2023-04-16T10:45:32.654Z,15.45
2023-04-16T10:47:59.391Z,15.45
2023-04-16T10:50:34.369Z,15.30
2023-04-16T10:53:19.667Z,15.40
2023-04-16T10:56:04.844Z,15.34
2023-04-16T10:58:31.845Z,15.46
2023-04-16T11:01:02.080Z,15.36
2023-04-16T11:03:31.855Z,15.30
2023-04-16T11:06:15.433Z,15.39
2023-04-16T11:08:53.983Z,15.41
2023-04-16T11:11:21.619Z,15.38
2023-04-16T11:13:48.222Z,15.46
2023-04-16T11:16:15.522Z,15.54
2023-04-16T11:18:48.811Z,15.53
2023-04-16T11:21:18.318Z,15.51
2023-04-16T11:23:52.312Z,15.36
2023-04-16T11:26:26.789Z,15.13
2023-04-16T11:28:54.460Z,15.17
2023-04-16T11:31:21.257Z,15.14
2023-04-16T11:33:47.961Z,15.29
2023-04-16T11:36:14.624Z,15.46
2023-04-16T11:38:41.235Z,15.61
2023-04-16T11:41:07.878Z,15.72
2023-04-16T11:43:34.480Z,15.76
2023-04-16T11:46:07.994Z,15.71
2023-04-16T11:48:49.789Z,15.87
2023-04-16T11:51:17.942Z,15.99
2023-04-16T11:53:51.441Z,16.16
2023-04-16T11:56:25.795Z,16.29
2023-04-16T11:59:15.233Z,16.25
2023-04-16T12:01:43.390Z,16.15
2023-04-16T12:04:10.454Z,16.29
2023-04-16T12:06:37.287Z,16.37
2023-04-16T12:09:25.785Z,16.34
2023-04-16T12:11:52.625Z,16.30
2023-04-16T12:14:19.350Z,16.28
2023-04-16T12:16:46.379Z,16.33
2023-04-16T12:19:13.185Z,16.33
2023-04-16T12:21:44.457Z,16.37
2023-04-16T12:24:13.731Z,16.42
2023-04-16T12:26:44.763Z,16.51
2023-04-16T12:29:21.884Z,16.57
2023-04-16T12:31:49.191Z,16.54
2023-04-16T12:34:15.867Z,16.41
2023-04-16T12:36:42.813Z,16.28
2023-04-16T12:39:09.923Z,16.19
2023-04-16T12:41:37.582Z,16.15
2023-04-16T12:44:11.718Z,16.14
2023-04-16T12:46:39.547Z,16.07
2023-04-16T12:49:06.310Z,15.95
2023-04-16T12:51:33.681Z,15.84
2023-04-16T12:54:00.709Z,15.73
2023-04-16T12:56:27.405Z,15.44
2023-04-16T12:58:54.102Z,15.57
2023-04-16T13:01:20.860Z,15.66
2023-04-16T13:03:47.941Z,15.74
2023-04-16T13:06:14.959Z,15.91
2023-04-16T13:08:44.540Z,15.84
2023-04-16T13:11:11.270Z,15.96
2023-04-16T13:13:37.888Z,15.97
2023-04-16T13:16:04.904Z,15.83
2023-04-16T13:18:31.604Z,15.81
2023-04-16T13:20:58.455Z,15.66
2023-04-16T13:23:25.446Z,15.63
2023-04-16T13:25:52.165Z,15.62
2023-04-16T13:28:18.796Z,15.62
2023-04-16T13:30:45.607Z,15.60
2023-04-16T13:33:12.252Z,15.67
2023-04-16T13:35:39.024Z,15.67
2023-04-16T13:38:05.697Z,15.73
2023-04-16T13:40:32.374Z,15.69
2023-04-16T13:42:59.002Z,15.76
2023-04-16T13:45:25.645Z,15.81
2023-04-16T13:47:52.347Z,15.75
2023-04-16T13:50:19.082Z,15.71
2023-04-16T13:52:47.114Z,15.73
2023-04-16T13:55:13.816Z,15.72
2023-04-16T13:57:40.796Z,15.70
2023-04-16T14:00:08.180Z,15.57
2023-04-16T14:02:35.168Z,15.57
2023-04-16T14:05:01.949Z,15.52
2023-04-16T14:07:28.764Z,15.47
2023-04-16T14:09:55.415Z,15.43
2023-04-16T14:12:22.095Z,15.37
2023-04-16T14:14:48.693Z,15.23
2023-04-16T14:17:15.298Z,15.14
2023-04-16T14:19:41.971Z,15.06
2023-04-16T14:22:09.490Z,14.96
2023-04-16T14:24:36.580Z,14.94
2023-04-16T14:27:03.656Z,15.00
2023-04-16T14:29:30.644Z,15.04
2023-04-16T14:31:57.379Z,15.06
2023-04-16T14:34:24.070Z,15.06
2023-04-16T14:36:53.503Z,15.10
2023-04-16T14:39:20.215Z,15.16
2023-04-16T14:41:46.867Z,15.18
2023-04-16T14:44:13.456Z,15.17
2023-04-16T14:46:40.168Z,15.18
2023-04-16T14:49:06.848Z,15.01
2023-04-16T14:51:33.558Z,15.12
2023-04-16T14:54:00.348Z,15.20
2023-04-16T14:56:27.017Z,15.28
2023-04-16T14:58:53.711Z,15.30
2023-04-16T15:01:23.005Z,15.43
2023-04-16T15:03:49.751Z,15.54
2023-04-16T15:06:16.761Z,15.71
2023-04-16T15:08:43.510Z,15.84
2023-04-16T15:11:10.158Z,15.97
2023-04-16T15:13:36.821Z,16.04
2023-04-16T15:16:03.622Z,16.05
2023-04-16T15:18:30.644Z,16.09
2023-04-16T15:20:57.257Z,16.16
2023-04-16T15:23:23.944Z,16.11
2023-04-16T15:25:50.574Z,16.12
2023-04-16T15:28:17.277Z,16.13
2023-04-16T15:30:44.081Z,16.15
2023-04-16T15:33:11.550Z,16.17
2023-04-16T15:35:38.260Z,16.14
2023-04-16T15:38:04.908Z,16.09
2023-04-16T15:40:31.528Z,16.03
2023-04-16T15:42:58.250Z,15.94
2023-04-16T15:45:24.907Z,15.80
2023-04-16T15:47:51.609Z,15.71
2023-04-16T15:50:18.976Z,15.77
2023-04-16T15:52:46.383Z,15.85
2023-04-16T15:55:13.091Z,15.80
2023-04-16T15:57:39.794Z,15.69
2023-04-16T16:00:07.520Z,15.70
2023-04-16T16:02:34.669Z,15.76
2023-04-16T16:05:01.537Z,15.69
2023-04-16T16:07:28.183Z,15.63
2023-04-16T16:09:54.849Z,15.74
2023-04-16T16:12:21.518Z,15.71
2023-04-16T16:14:48.180Z,15.76
2023-04-16T16:17:16.007Z,15.69
2023-04-16T16:19:43.763Z,15.82
2023-04-16T16:22:11.914Z,15.80
2023-04-16T16:24:38.868Z,15.67
2023-04-16T16:27:05.513Z,15.70
2023-04-16T16:29:32.126Z,15.73
2023-04-16T16:31:58.926Z,15.54
2023-04-16T16:34:25.641Z,15.40
2023-04-16T16:36:52.269Z,15.42
2023-04-16T16:39:20.964Z,15.39
2023-04-16T16:41:47.651Z,15.19
2023-04-16T16:44:14.313Z,15.07
2023-04-16T16:46:40.996Z,15.02
2023-04-16T16:49:07.671Z,14.63
2023-04-16T16:51:34.278Z,14.49
2023-04-16T16:54:00.957Z,14.64
2023-04-16T16:56:27.592Z,14.70
2023-04-16T16:58:54.263Z,14.75
2023-04-16T17:01:20.953Z,14.61
2023-04-16T17:03:47.805Z,14.78
2023-04-16T17:06:14.734Z,14.77
2023-04-16T17:08:41.444Z,14.28
2023-04-16T17:11:08.098Z,14.18
2023-04-16T17:13:35.236Z,14.23
2023-04-16T17:16:01.945Z,14.30
2023-04-16T17:18:28.580Z,14.48
2023-04-16T17:20:55.249Z,14.60
2023-04-16T17:23:21.905Z,14.58
2023-04-16T17:25:48.541Z,14.62
2023-04-16T17:28:15.174Z,14.16
2023-04-16T17:30:41.826Z,14.36
2023-04-16T17:33:08.486Z,14.36
2023-04-16T17:35:35.322Z,14.39
2023-04-16T17:38:02.028Z,14.41
2023-04-16T17:40:28.688Z,14.35
2023-04-16T17:42:55.345Z,14.32
2023-04-16T17:45:21.998Z,14.43
2023-04-16T17:47:48.754Z,14.34
2023-04-16T17:50:15.582Z,14.10
2023-04-16T17:52:42.261Z,14.18
2023-04-16T17:55:10.489Z,14.18
2023-04-16T17:57:37.332Z,13.84
2023-04-16T18:00:04.417Z,14.07
2023-04-16T18:02:31.144Z,14.25
2023-04-16T18:04:58.136Z,14.27
2023-04-16T18:07:24.801Z,14.19
2023-04-16T18:09:54.696Z,14.18
2023-04-16T18:12:21.569Z,14.14
2023-04-16T18:14:48.197Z,14.18
2023-04-16T18:17:14.942Z,14.34
2023-04-16T18:19:41.611Z,14.45
2023-04-16T18:22:08.242Z,14.51
2023-04-16T18:24:35.020Z,14.41
2023-04-16T18:27:02.210Z,14.35
2023-04-16T18:29:28.939Z,14.34
2023-04-16T18:31:55.854Z,14.28
2023-04-16T18:34:22.718Z,14.32
2023-04-16T18:36:49.495Z,14.29
2023-04-16T18:39:16.315Z,14.27
2023-04-16T18:41:43.110Z,14.19
2023-04-16T18:44:09.780Z,14.09
2023-04-16T18:46:36.474Z,14.21
2023-04-16T18:49:03.166Z,14.13
2023-04-16T18:51:29.827Z,14.10
2023-04-16T18:53:56.441Z,14.01
2023-04-16T18:56:23.110Z,14.01
2023-04-16T18:58:49.882Z,13.92
2023-04-16T19:01:16.815Z,13.88
2023-04-16T19:03:43.673Z,13.84
2023-04-16T19:06:11.444Z,13.85
2023-04-16T19:08:38.057Z,13.54
2023-04-16T19:11:04.672Z,13.72
2023-04-16T19:13:31.337Z,13.83
2023-04-16T19:15:58.525Z,13.85
2023-04-16T19:18:25.439Z,13.77
2023-04-16T19:20:52.144Z,13.73
2023-04-16T19:23:18.843Z,13.49
2023-04-16T19:25:45.443Z,13.72
2023-04-16T19:28:12.097Z,13.79
2023-04-16T19:30:38.850Z,13.59
2023-04-16T19:33:05.646Z,13.60
2023-04-16T19:35:32.440Z,13.73
2023-04-16T19:37:59.396Z,13.62
2023-04-16T19:40:26.021Z,13.44
2023-04-16T19:42:52.753Z,13.57
2023-04-16T19:45:19.468Z,13.43
2023-04-16T19:47:46.182Z,13.38
2023-04-16T19:50:12.827Z,13.49
2023-04-16T19:52:39.511Z,13.54
2023-04-16T19:55:06.815Z,13.45
2023-04-16T19:57:33.468Z,13.68
2023-04-16T20:02:27.061Z,13.72
2023-04-16T20:04:53.774Z,13.39
2023-04-16T20:07:20.505Z,13.44
2023-04-16T20:09:47.216Z,13.27
2023-04-16T20:12:13.871Z,13.15
2023-04-16T20:14:40.480Z,13.42
2023-04-16T20:17:07.437Z,13.42
2023-04-16T20:19:34.150Z,13.38
2023-04-16T20:22:00.794Z,13.52
2023-04-16T20:24:27.420Z,13.53
2023-04-16T20:26:54.218Z,13.62
2023-04-16T20:29:20.875Z,13.52
2023-04-16T20:31:47.487Z,13.44
2023-04-16T20:34:14.248Z,13.63
2023-04-16T20:36:40.885Z,13.68
2023-04-16T20:39:07.522Z,13.74
2023-04-16T20:41:35.452Z,13.76
2023-04-16T20:44:02.131Z,13.75
2023-04-16T20:46:29.839Z,13.56
2023-04-16T20:48:56.546Z,13.45
2023-04-16T20:51:23.201Z,13.48
2023-04-16T20:53:49.797Z,13.50
2023-04-16T20:56:16.436Z,13.41
2023-04-16T20:58:43.053Z,13.38
2023-04-16T21:01:09.723Z,13.33
2023-04-16T21:03:36.681Z,13.26
2023-04-16T21:06:03.479Z,13.09
2023-04-16T21:08:30.130Z,13.31
2023-04-16T21:10:56.811Z,13.37
2023-04-16T21:13:23.455Z,13.45
2023-04-16T21:15:50.198Z,13.38
2023-04-16T21:18:17.062Z,13.29
2023-04-16T21:20:43.718Z,13.39
2023-04-16T21:23:10.379Z,13.25
2023-04-16T21:25:36.982Z,13.23
2023-04-16T21:28:03.626Z,13.31
2023-04-16T21:30:30.276Z,13.21
2023-04-16T21:32:56.954Z,13.27
2023-04-16T21:35:23.606Z,13.13
2023-04-16T21:37:50.245Z,13.24
2023-04-16T21:40:16.963Z,13.20
2023-04-16T21:42:43.565Z,13.08
2023-04-16T21:45:10.290Z,13.27
2023-04-16T21:47:37.470Z,13.35
2023-04-16T21:50:04.387Z,13.26
2023-04-16T21:52:31.039Z,13.43
2023-04-16T21:54:57.705Z,13.36
2023-04-16T21:57:24.310Z,13.36
2023-04-16T21:59:50.918Z,13.42
2023-04-16T22:02:17.646Z,13.31
2023-04-16T22:04:44.303Z,13.34
2023-04-16T22:07:10.893Z,13.31
2023-04-16T22:09:40.743Z,13.08
2023-04-16T22:12:07.501Z,12.59
2023-04-16T22:14:38.374Z,12.77
2023-04-16T22:17:07.245Z,12.81
2023-04-16T22:19:33.880Z,12.69
2023-04-16T22:22:00.525Z,12.62
2023-04-16T22:24:27.303Z,12.85
2023-04-16T22:26:53.969Z,12.87
2023-04-16T22:29:20.598Z,12.76
2023-04-16T22:31:47.287Z,12.63
2023-04-16T22:34:13.933Z,12.84
2023-04-16T22:36:40.647Z,12.82
2023-04-16T22:39:07.359Z,12.81
2023-04-16T22:41:36.435Z,13.04
2023-04-16T22:44:03.352Z,13.19
2023-04-16T22:46:30.187Z,13.18
2023-04-16T22:48:57.039Z,13.07
2023-04-16T22:51:23.703Z,13.16
2023-04-16T22:53:51.404Z,13.15
2023-04-16T22:56:21.464Z,13.15
2023-04-16T22:58:48.105Z,12.99
2023-04-16T23:01:15.205Z,12.78
2023-04-16T23:03:41.882Z,12.75
2023-04-16T23:06:08.601Z,12.87
2023-04-16T23:08:35.350Z,12.89
2023-04-16T23:11:02.010Z,13.00
2023-04-16T23:13:28.669Z,12.91
2023-04-16T23:15:55.383Z,12.89
2023-04-16T23:18:22.199Z,12.80
2023-04-16T23:20:52.633Z,13.02
2023-04-16T23:23:19.452Z,13.06
2023-04-16T23:25:46.148Z,13.03
2023-04-16T23:28:12.836Z,13.06
2023-04-16T23:30:39.718Z,12.58
2023-04-16T23:33:06.426Z,12.64
2023-04-16T23:35:33.152Z,12.73
2023-04-16T23:37:59.821Z,12.35
2023-04-16T23:40:26.518Z,12.25
2023-04-16T23:42:53.211Z,12.33
2023-04-16T23:45:19.891Z,12.37
2023-04-16T23:47:46.664Z,12.33
2023-04-16T23:50:13.386Z,12.21
2023-04-16T23:52:40.038Z,12.22
2023-04-16T23:55:06.886Z,12.31
2023-04-16T23:57:33.535Z,12.52
